Time;durP1;ratioP1;P1;durP2;ratioP2;P2;SDS_P1;SDS_P2;PMS_P1;PMS_P2;Temp;Humidity;BMP_temperature;BMP_pressure;BME280_temperature;BME280_humidity;BME280_pressure;Samples;Min_cycle;Max_cycle;Signal;HPM_P1;HPM_P2
2022/06/25 00:01:51;;;;;;;4.40;4.10;;;19.30;99.20;;;;;;5032254;28;20199;-84
2022/06/25 00:07:02;;;;;;;4.72;4.43;;;19.40;97.90;;;;;;5036326;28;20191;-84
2022/06/25 00:09:28;;;;;;;4.85;4.55;;;19.50;97.40;;;;;;5035099;28;20235;-84
2022/06/25 00:14:38;;;;;;;5.47;5.07;;;19.60;95.70;;;;;;5032447;28;20253;-85
2022/06/25 00:17:04;;;;;;;5.03;4.72;;;19.70;96.20;;;;;;5038646;28;20191;-84
2022/06/25 00:19:30;;;;;;;5.00;4.70;;;19.70;95.80;;;;;;5035067;28;20215;-85
2022/06/25 00:21:56;;;;;;;6.57;6.13;;;19.70;96.10;;;;;;5037833;28;20184;-84
2022/06/25 00:24:22;;;;;;;5.68;5.38;;;19.70;95.90;;;;;;5036255;28;20182;-85
2022/06/25 00:26:48;;;;;;;5.97;5.60;;;19.60;94.90;;;;;;5031083;28;20176;-84
2022/06/25 00:29:14;;;;;;;6.53;5.78;;;19.70;95.20;;;;;;5035480;28;20679;-85
2022/06/25 00:31:40;;;;;;;5.32;5.13;;;19.70;95.40;;;;;;5035292;28;20203;-85
2022/06/25 00:34:06;;;;;;;6.03;5.55;;;19.80;95.40;;;;;;5035886;28;20188;-84
2022/06/25 00:36:32;;;;;;;6.32;6.03;;;19.60;95.90;;;;;;5042009;28;20206;-84
2022/06/25 00:38:58;;;;;;;5.38;5.07;;;19.60;95.50;;;;;;5031186;28;20300;-84
2022/06/25 00:41:24;;;;;;;5.32;5.00;;;19.70;94.80;;;;;;5038058;28;20189;-84
2022/06/25 00:43:50;;;;;;;5.63;5.32;;;19.60;95.00;;;;;;5034357;28;20184;-85
2022/06/25 00:46:16;;;;;;;5.13;4.82;;;19.50;95.20;;;;;;5041769;28;20184;-84
2022/06/25 00:48:41;;;;;;;5.15;4.85;;;19.40;96.00;;;;;;5030619;28;20202;-84
2022/06/25 00:51:12;;;;;;;5.60;5.30;;;19.40;96.10;;;;;;5041133;28;20240;-84
2022/06/25 00:53:41;;;;;;;4.97;4.68;;;19.30;96.80;;;;;;5035031;28;20193;-84
2022/06/25 00:56:09;;;;;;;5.10;4.80;;;19.20;96.40;;;;;;5036143;28;20711;-84
2022/06/25 00:58:39;;;;;;;5.35;5.05;;;19.20;96.70;;;;;;5037690;28;20227;-84
2022/06/25 01:01:08;;;;;;;5.40;5.10;;;19.20;97.00;;;;;;5035118;28;20258;-84
2022/06/25 01:03:34;;;;;;;4.70;4.40;;;19.20;96.80;;;;;;5036394;28;20308;-85
2022/06/25 01:06:00;;;;;;;5.43;5.13;;;19.20;96.70;;;;;;5039525;28;20579;-85
2022/06/25 01:08:26;;;;;;;5.10;4.85;;;19.20;96.70;;;;;;5043169;28;20183;-84
2022/06/25 01:10:53;;;;;;;4.63;4.25;;;19.20;95.90;;;;;;5043413;28;20192;-84
2022/06/25 01:13:22;;;;;;;5.70;5.32;;;19.10;96.70;;;;;;5038114;28;20185;-84
2022/06/25 01:15:49;;;;;;;8.68;4.97;;;19.10;96.60;;;;;;5042506;28;20188;-84
2022/06/25 01:18:15;;;;;;;5.18;4.72;;;19.10;96.60;;;;;;5034682;28;20182;-84
2022/06/25 01:20:42;;;;;;;5.70;5.30;;;19.10;97.00;;;;;;5041918;28;20218;-84
2022/06/25 01:23:09;;;;;;;4.97;4.53;;;19.20;96.30;;;;;;5038669;28;20181;-84
2022/06/25 01:25:36;;;;;;;4.88;4.57;;;19.20;95.60;;;;;;5042169;28;20632;-84
2022/06/25 01:28:03;;;;;;;5.40;5.00;;;19.30;95.50;;;;;;5035654;28;20192;-84
2022/06/25 01:30:29;;;;;;;5.53;5.13;;;19.30;95.60;;;;;;5040999;28;20225;-84
2022/06/25 01:32:55;;;;;;;5.53;5.07;;;19.30;96.30;;;;;;5049858;28;20191;-84
2022/06/25 01:35:21;;;;;;;4.95;4.57;;;19.30;95.60;;;;;;5042804;28;20189;-84
2022/06/25 01:37:46;;;;;;;5.30;5.00;;;19.30;95.80;;;;;;5040380;28;20191;-84
2022/06/25 01:40:13;;;;;;;5.43;4.93;;;19.30;95.60;;;;;;5033393;28;20268;-84
2022/06/25 01:45:23;;;;;;;5.38;4.88;;;19.20;95.40;;;;;;5033186;28;20195;-84
2022/06/25 01:47:48;;;;;;;5.53;5.22;;;19.10;95.70;;;;;;5036014;28;20190;-84
2022/06/25 01:50:15;;;;;;;5.82;5.53;;;19.10;95.90;;;;;;5032995;28;20214;-84
2022/06/25 01:52:42;;;;;;;5.28;5.05;;;18.90;96.40;;;;;;5035919;28;20217;-84
2022/06/25 01:55:09;;;;;;;5.45;5.05;;;18.90;96.90;;;;;;5035222;28;20191;-85
2022/06/25 01:57:34;;;;;;;5.47;5.10;;;18.80;97.00;;;;;;5036125;28;20185;-84
2022/06/25 02:00:00;;;;;;;5.75;4.97;;;18.60;98.50;;;;;;5037368;28;20205;-84
2022/06/25 02:02:26;;;;;;;6.53;5.45;;;18.60;98.90;;;;;;5044355;28;20254;-84
2022/06/25 02:04:52;;;;;;;5.55;5.15;;;18.50;98.90;;;;;;5036879;28;20253;-84
2022/06/25 02:07:17;;;;;;;4.90;4.60;;;18.50;99.60;;;;;;5038751;28;20197;-85
2022/06/25 02:09:43;;;;;;;5.30;5.00;;;18.60;99.10;;;;;;5042586;28;20491;-84
2022/06/25 02:12:09;;;;;;;5.20;4.85;;;18.50;99.40;;;;;;5042900;28;20192;-85
2022/06/25 02:14:34;;;;;;;6.03;5.50;;;18.60;98.80;;;;;;5040615;28;20215;-84
2022/06/25 02:17:00;;;;;;;5.53;5.13;;;18.70;98.60;;;;;;5045888;28;20173;-84
2022/06/25 02:19:26;;;;;;;5.35;4.95;;;18.80;98.10;;;;;;5044655;28;21126;-84
2022/06/25 02:21:51;;;;;;;5.35;4.88;;;18.80;97.40;;;;;;5048174;28;20740;-85
2022/06/25 02:24:17;;;;;;;5.05;4.57;;;18.90;97.00;;;;;;5047541;28;20192;-85
2022/06/25 02:26:44;;;;;;;5.93;5.07;;;19.00;97.50;;;;;;5035498;28;20245;-84
2022/06/25 02:29:09;;;;;;;5.05;4.75;;;19.00;96.10;;;;;;5036856;28;20261;-85
2022/06/25 02:31:35;;;;;;;4.82;4.53;;;18.90;96.00;;;;;;5049446;28;20189;-85
2022/06/25 02:34:01;;;;;;;4.90;4.60;;;19.00;95.70;;;;;;5037192;28;20193;-85
2022/06/25 02:36:27;;;;;;;5.00;4.60;;;18.90;95.70;;;;;;5039326;28;20214;-85
2022/06/25 02:38:52;;;;;;;5.20;4.80;;;18.90;95.80;;;;;;5035269;28;20241;-85
2022/06/25 02:41:18;;;;;;;5.50;5.00;;;18.90;95.70;;;;;;5039916;28;20252;-85
2022/06/25 02:43:44;;;;;;;4.95;4.65;;;18.90;95.50;;;;;;5035840;28;20239;-84
2022/06/25 02:46:10;;;;;;;4.70;4.50;;;18.90;95.90;;;;;;5036377;28;20220;-85
2022/06/25 02:48:35;;;;;;;5.10;4.65;;;18.90;96.00;;;;;;5035518;28;20711;-85
2022/06/25 02:51:01;;;;;;;5.10;4.80;;;19.00;95.70;;;;;;5036975;28;20193;-84
2022/06/25 02:53:27;;;;;;;5.25;4.65;;;19.00;95.80;;;;;;5037530;28;20200;-84
2022/06/25 02:58:56;;;;;;;5.30;4.85;;;19.10;95.40;;;;;;5035583;28;20267;-85
2022/06/25 03:01:29;;;;;;;4.70;4.40;;;19.00;95.10;;;;;;5040039;28;20197;-83
2022/06/25 03:03:56;;;;;;;5.15;4.75;;;19.00;94.80;;;;;;5044698;28;20174;-85
2022/06/25 03:06:21;;;;;;;6.03;5.10;;;19.00;95.10;;;;;;5043462;28;20190;-85
2022/06/25 03:08:48;;;;;;;5.05;4.75;;;19.00;95.00;;;;;;5036641;28;20474;-84
2022/06/25 03:11:14;;;;;;;5.90;5.40;;;19.00;95.10;;;;;;5041011;28;20193;-85
2022/06/25 03:13:40;;;;;;;4.93;4.63;;;19.00;95.10;;;;;;5040448;28;20247;-84
2022/06/25 03:16:07;;;;;;;5.95;5.45;;;19.00;95.10;;;;;;5040373;28;20196;-84
2022/06/25 03:18:34;;;;;;;5.20;4.90;;;19.00;94.80;;;;;;5042800;28;20245;-85
2022/06/25 03:21:00;;;;;;;4.72;4.50;;;19.00;94.70;;;;;;5042923;28;20289;-84
2022/06/25 03:23:26;;;;;;;5.60;5.15;;;19.00;94.20;;;;;;5041411;28;20187;-85
2022/06/25 03:25:52;;;;;;;4.95;4.60;;;19.00;94.00;;;;;;5043309;28;20185;-85
2022/06/25 03:28:18;;;;;;;5.13;4.72;;;19.00;94.10;;;;;;5041962;28;20188;-84
2022/06/25 03:30:44;;;;;;;5.15;4.80;;;18.90;93.90;;;;;;5040140;28;20212;-84
2022/06/25 03:33:10;;;;;;;5.30;4.80;;;18.80;94.60;;;;;;5039388;28;20246;-84
2022/06/25 03:35:36;;;;;;;5.00;4.68;;;18.70;95.30;;;;;;5032934;28;20305;-85
2022/06/25 03:38:02;;;;;;;5.30;4.80;;;18.70;94.80;;;;;;5034969;28;20199;-84
2022/06/25 03:40:28;;;;;;;5.10;4.70;;;18.70;94.80;;;;;;5038989;28;20215;-85
2022/06/25 03:42:53;;;;;;;4.68;4.47;;;18.80;95.70;;;;;;5039951;28;20202;-84
2022/06/25 03:45:19;;;;;;;5.15;4.72;;;18.80;94.70;;;;;;5042516;28;20220;-85
2022/06/25 03:47:51;;;;;;;5.38;4.97;;;18.80;94.60;;;;;;5035019;28;20190;-84
2022/06/25 03:50:18;;;;;;;4.75;4.22;;;18.80;95.10;;;;;;5038834;28;20241;-85
2022/06/25 03:52:45;;;;;;;4.72;4.47;;;18.80;94.70;;;;;;5034915;28;20208;-84
2022/06/25 03:55:11;;;;;;;5.13;4.80;;;18.80;94.70;;;;;;5034499;28;20200;-84
2022/06/25 03:57:37;;;;;;;4.82;4.43;;;18.80;94.90;;;;;;5038522;28;20195;-84
2022/06/25 04:00:05;;;;;;;4.63;4.32;;;18.80;94.30;;;;;;5037812;28;20610;-84
2022/06/25 04:02:31;;;;;;;4.80;4.43;;;18.80;94.30;;;;;;5036624;28;20193;-85
2022/06/25 04:04:57;;;;;;;5.32;4.93;;;18.80;94.40;;;;;;5035954;28;20180;-84
2022/06/25 04:07:23;;;;;;;4.72;4.50;;;18.80;93.90;;;;;;5039566;28;20188;-84
2022/06/25 04:09:48;;;;;;;5.18;4.78;;;18.60;94.30;;;;;;5035031;28;20572;-85
2022/06/25 04:12:14;;;;;;;4.88;4.57;;;18.60;94.90;;;;;;5033465;28;20185;-84
2022/06/25 04:14:40;;;;;;;4.78;4.38;;;18.60;95.20;;;;;;5026430;28;20254;-85
2022/06/25 04:17:06;;;;;;;5.05;4.63;;;18.60;95.70;;;;;;5024633;28;20198;-85
2022/06/25 04:19:39;;;;;;;5.03;4.60;;;18.50;96.90;;;;;;5038305;28;20217;-84
2022/06/25 04:22:09;;;;;;;4.57;4.20;;;18.60;97.10;;;;;;5045357;28;20172;-84
2022/06/25 04:24:37;;;;;;;4.55;4.25;;;18.70;96.40;;;;;;5032414;28;20199;-84
2022/06/25 04:27:03;;;;;;;4.68;4.38;;;18.80;95.80;;;;;;5034789;28;20186;-85
2022/06/25 04:29:29;;;;;;;5.03;4.72;;;18.80;95.50;;;;;;5036395;28;20210;-85
2022/06/25 04:31:55;;;;;;;5.45;5.15;;;18.80;96.00;;;;;;5038656;28;20197;-84
2022/06/25 04:34:21;;;;;;;4.80;4.40;;;18.80;96.10;;;;;;5040138;28;20194;-85
2022/06/25 04:36:47;;;;;;;5.32;4.55;;;18.80;96.20;;;;;;5039549;28;20211;-85
2022/06/25 04:39:13;;;;;;;4.60;4.30;;;18.80;96.30;;;;;;5041152;28;20237;-85
2022/06/25 04:41:39;;;;;;;4.45;4.15;;;18.80;96.40;;;;;;5040393;28;20272;-85
2022/06/25 04:44:05;;;;;;;4.82;4.43;;;18.80;96.30;;;;;;5036556;28;20186;-85
2022/06/25 04:46:30;;;;;;;5.32;4.90;;;18.70;97.40;;;;;;5039004;28;20590;-84
2022/06/25 04:48:57;;;;;;;5.13;4.82;;;18.80;96.80;;;;;;5034341;28;20261;-85
2022/06/25 04:51:24;;;;;;;5.40;4.85;;;18.70;97.00;;;;;;5035513;28;20248;-85
2022/06/25 04:53:55;;;;;;;5.10;4.28;;;18.80;97.10;;;;;;5035828;28;20191;-84
2022/06/25 04:56:26;;;;;;;4.70;4.30;;;18.70;97.70;;;;;;5032369;28;20197;-85
2022/06/25 04:58:52;;;;;;;4.60;4.20;;;18.80;98.10;;;;;;5038400;28;20204;-85
2022/06/25 05:01:18;;;;;;;4.85;4.45;;;18.70;99.20;;;;;;5032876;28;20205;-85
2022/06/25 05:03:44;;;;;;;5.00;4.60;;;18.70;98.90;;;;;;5042176;28;20187;-85
2022/06/25 05:06:10;;;;;;;4.60;4.30;;;18.70;98.80;;;;;;5037980;28;20184;-85
2022/06/25 05:08:36;;;;;;;4.97;4.45;;;18.50;99.90;;;;;;5036100;28;20672;-84
2022/06/25 05:11:02;;;;;;;4.95;4.63;;;18.50;99.90;;;;;;5038880;28;20252;-83
2022/06/25 05:13:29;;;;;;;4.75;4.47;;;18.30;99.90;;;;;;5041855;28;20247;-84
2022/06/25 05:15:55;;;;;;;6.28;4.53;;;18.30;99.90;;;;;;5042417;28;20747;-84
2022/06/25 05:18:20;;;;;;;5.10;4.60;;;18.20;99.90;;;;;;5045783;28;20192;-85
2022/06/25 05:20:46;;;;;;;4.10;3.80;;;18.10;99.90;;;;;;5039107;28;20221;-85
2022/06/25 05:23:13;;;;;;;4.43;4.07;;;18.30;99.90;;;;;;5041459;28;20200;-85
2022/06/25 05:25:41;;;;;;;4.38;4.07;;;18.30;99.90;;;;;;5038950;28;20181;-85
2022/06/25 05:28:08;;;;;;;4.68;4.28;;;18.40;99.90;;;;;;5041367;28;20177;-85
2022/06/25 05:30:34;;;;;;;4.80;4.50;;;18.50;99.90;;;;;;5034246;28;20197;-85
2022/06/25 05:33:00;;;;;;;4.68;4.28;;;18.60;99.90;;;;;;5036858;28;20249;-85
2022/06/25 05:35:27;;;;;;;5.13;4.63;;;18.60;99.90;;;;;;5044362;28;20211;-84
2022/06/25 05:37:52;;;;;;;4.75;4.45;;;18.50;99.90;;;;;;5039444;28;20681;-85
2022/06/25 05:40:19;;;;;;;4.50;4.20;;;18.50;99.90;;;;;;5040696;28;20219;-84
2022/06/25 05:42:45;;;;;;;5.10;4.80;;;18.40;99.90;;;;;;5040530;28;20520;-84
2022/06/25 05:45:11;;;;;;;4.63;4.22;;;18.40;99.90;;;;;;5033240;28;20217;-84
2022/06/25 05:47:37;;;;;;;4.90;4.40;;;18.40;99.90;;;;;;5036964;28;20182;-84
2022/06/25 05:50:04;;;;;;;4.55;4.15;;;18.40;99.90;;;;;;5031281;28;20287;-84
2022/06/25 05:52:30;;;;;;;6.55;4.90;;;18.60;99.90;;;;;;5033615;28;20204;-84
2022/06/25 05:54:55;;;;;;;4.72;4.43;;;18.70;99.90;;;;;;5040187;28;20188;-83
2022/06/25 05:57:21;;;;;;;5.30;4.80;;;18.60;99.90;;;;;;5037050;28;20214;-84
2022/06/25 05:59:47;;;;;;;4.78;4.50;;;18.60;99.90;;;;;;5036437;28;20637;-84
2022/06/25 06:02:13;;;;;;;4.93;4.45;;;18.70;99.90;;;;;;5033321;28;20551;-84
2022/06/25 06:04:38;;;;;;;5.85;4.40;;;18.70;99.90;;;;;;5042810;28;20217;-84
2022/06/25 06:07:05;;;;;;;4.47;4.28;;;18.80;99.90;;;;;;5038246;28;20197;-84
2022/06/25 06:09:32;;;;;;;4.07;3.78;;;18.90;99.90;;;;;;5037409;28;20217;-84
2022/06/25 06:11:58;;;;;;;5.72;4.55;;;19.10;99.90;;;;;;5040183;28;20243;-84
2022/06/25 06:14:24;;;;;;;4.30;4.10;;;19.10;99.90;;;;;;5052425;28;20189;-84
2022/06/25 06:16:50;;;;;;;4.90;4.60;;;19.30;99.90;;;;;;5035915;28;20230;-84
2022/06/25 06:19:15;;;;;;;4.72;4.45;;;19.40;99.40;;;;;;5040990;28;20209;-84
2022/06/25 06:21:41;;;;;;;4.20;3.90;;;19.40;99.40;;;;;;5034070;28;20186;-84
2022/06/25 06:24:07;;;;;;;4.53;4.13;;;19.60;96.40;;;;;;5039527;28;20674;-84
2022/06/25 06:26:33;;;;;;;5.28;4.20;;;19.70;97.20;;;;;;5041096;28;20189;-85
2022/06/25 06:28:59;;;;;;;4.18;3.78;;;19.80;95.30;;;;;;5040101;28;20222;-84
2022/06/25 06:31:25;;;;;;;4.00;3.70;;;19.90;95.50;;;;;;5037788;28;20194;-84
2022/06/25 06:33:51;;;;;;;4.28;4.07;;;19.80;95.10;;;;;;5044345;28;20184;-84
2022/06/25 06:36:16;;;;;;;4.10;3.90;;;19.90;95.40;;;;;;5044478;28;20183;-84
2022/06/25 06:38:42;;;;;;;4.18;3.83;;;20.00;94.60;;;;;;5036673;28;20217;-84
2022/06/25 06:41:08;;;;;;;3.97;3.67;;;20.00;95.80;;;;;;5038626;28;20213;-84
2022/06/25 06:43:33;;;;;;;3.80;3.60;;;19.90;95.50;;;;;;5037850;28;20588;-84
2022/06/25 06:45:59;;;;;;;3.92;3.72;;;19.90;93.90;;;;;;5040343;28;20192;-85
2022/06/25 06:48:25;;;;;;;3.58;3.38;;;20.00;94.60;;;;;;5039777;28;20183;-84
2022/06/25 06:50:50;;;;;;;5.10;3.35;;;20.00;91.80;;;;;;5039414;28;20187;-84
2022/06/25 06:53:16;;;;;;;3.97;3.78;;;20.20;93.00;;;;;;5037367;28;20189;-83
2022/06/25 06:55:42;;;;;;;4.35;4.15;;;20.30;95.80;;;;;;5036874;28;20231;-84
2022/06/25 06:58:08;;;;;;;3.97;3.70;;;20.40;95.00;;;;;;5036393;28;20417;-84
2022/06/25 07:00:33;;;;;;;4.45;3.67;;;20.50;93.60;;;;;;5037233;28;20229;-84
2022/06/25 07:02:59;;;;;;;4.28;4.07;;;20.30;95.00;;;;;;5036332;28;20189;-84
2022/06/25 07:05:25;;;;;;;4.03;3.83;;;20.30;95.50;;;;;;5031915;28;20215;-84
2022/06/25 07:07:50;;;;;;;4.38;4.18;;;20.30;94.70;;;;;;5032370;28;20424;-84
2022/06/25 07:10:16;;;;;;;5.05;4.70;;;20.50;92.90;;;;;;5044900;28;20278;-84
2022/06/25 07:12:42;;;;;;;4.65;4.35;;;20.70;90.50;;;;;;5039569;28;20201;-84
2022/06/25 07:15:08;;;;;;;5.10;4.70;;;20.80;89.50;;;;;;5039893;28;20219;-84
2022/06/25 07:17:34;;;;;;;4.18;3.88;;;20.90;89.50;;;;;;5036945;28;20197;-85
2022/06/25 07:19:59;;;;;;;4.35;4.15;;;20.90;88.20;;;;;;5036654;28;20236;-84
2022/06/25 07:22:25;;;;;;;4.93;4.72;;;20.90;88.00;;;;;;5033847;28;20640;-85
2022/06/25 07:24:53;;;;;;;4.55;4.25;;;20.80;89.70;;;;;;5033062;28;20294;-85
2022/06/25 07:27:19;;;;;;;4.15;3.95;;;20.90;89.50;;;;;;5031916;28;20199;-85
2022/06/25 07:29:45;;;;;;;4.65;4.40;;;20.80;87.10;;;;;;5035807;28;20213;-85
2022/06/25 07:32:11;;;;;;;5.20;5.00;;;20.90;87.70;;;;;;5034273;28;20567;-86
2022/06/25 07:34:37;;;;;;;5.05;4.78;;;20.90;89.50;;;;;;5037343;28;20204;-85
2022/06/25 07:37:03;;;;;;;4.97;4.78;;;21.10;87.10;;;;;;5034851;28;20221;-86
2022/06/25 07:39:29;;;;;;;5.72;5.43;;;21.40;82.70;;;;;;5043313;28;22150;-85
2022/06/25 07:41:55;;;;;;;5.20;4.90;;;21.50;87.70;;;;;;5035343;28;20177;-85
2022/06/25 07:44:21;;;;;;;5.38;5.07;;;21.70;83.70;;;;;;5038267;28;20188;-86
2022/06/25 07:46:47;;;;;;;5.50;5.30;;;21.70;85.20;;;;;;5033976;28;20220;-86
2022/06/25 07:49:13;;;;;;;5.30;5.03;;;21.70;86.40;;;;;;5034329;28;20200;-86
2022/06/25 07:51:59;;;;;;;5.07;4.78;;;21.70;85.10;;;;;;5028941;28;20181;-86
2022/06/25 07:54:30;;;;;;;5.05;4.57;;;21.90;83.10;;;;;;5032875;28;20193;-85
2022/06/25 07:56:57;;;;;;;4.93;4.68;;;22.10;82.80;;;;;;5034498;28;20258;-85
2022/06/25 07:59:23;;;;;;;4.70;4.47;;;22.20;84.60;;;;;;5035147;28;20204;-85
2022/06/25 08:01:49;;;;;;;4.90;4.18;;;22.30;78.90;;;;;;5032122;28;20185;-85
2022/06/25 08:04:15;;;;;;;4.85;4.45;;;22.40;82.50;;;;;;5025976;28;20200;-87
2022/06/25 08:06:41;;;;;;;5.25;4.85;;;22.50;84.10;;;;;;5029069;28;20181;-86
2022/06/25 08:09:10;;;;;;;4.75;4.55;;;22.70;78.90;;;;;;5041000;28;20264;-86
2022/06/25 08:11:37;;;;;;;4.13;3.88;;;22.60;77.80;;;;;;5042039;28;20244;-86
2022/06/25 08:14:03;;;;;;;4.88;3.97;;;22.70;78.70;;;;;;5036451;28;20593;-85
2022/06/25 08:16:29;;;;;;;4.90;4.57;;;22.90;78.40;;;;;;5041708;28;20205;-86
2022/06/25 08:18:55;;;;;;;4.40;4.13;;;23.00;75.10;;;;;;5034884;28;20211;-86
2022/06/25 08:21:21;;;;;;;4.45;4.15;;;22.80;75.50;;;;;;5040400;28;20221;-86
2022/06/25 08:23:47;;;;;;;3.97;3.67;;;22.80;75.10;;;;;;5038952;28;20189;-86
2022/06/25 08:26:13;;;;;;;5.63;5.05;;;22.80;74.40;;;;;;5042468;28;20220;-85
2022/06/25 08:28:38;;;;;;;6.13;5.72;;;22.90;74.00;;;;;;5041528;28;20214;-86
2022/06/25 08:31:05;;;;;;;6.35;5.65;;;23.00;76.80;;;;;;5041783;28;20268;-86
2022/06/25 08:33:31;;;;;;;5.63;5.13;;;23.20;76.50;;;;;;5037539;28;20192;-86
2022/06/25 08:35:57;;;;;;;5.78;5.38;;;23.30;74.40;;;;;;5041234;28;20189;-85
2022/06/25 08:38:23;;;;;;;6.13;5.72;;;23.40;73.70;;;;;;5038861;28;20199;-86
2022/06/25 08:40:49;;;;;;;6.18;5.85;;;23.70;75.30;;;;;;5040083;28;20212;-86
2022/06/25 08:43:15;;;;;;;4.80;4.53;;;23.80;72.80;;;;;;5046330;28;20556;-86
2022/06/25 08:45:41;;;;;;;4.97;4.68;;;24.00;70.60;;;;;;5038982;28;20605;-86
2022/06/25 08:48:20;;;;;;;5.72;5.47;;;24.20;70.60;;;;;;5038705;28;20212;-86
2022/06/25 08:50:48;;;;;;;5.90;5.60;;;24.10;70.30;;;;;;5038104;28;20195;-86
2022/06/25 08:53:16;;;;;;;6.95;6.55;;;24.30;69.60;;;;;;5037608;28;20224;-86
2022/06/25 08:55:44;;;;;;;5.15;4.72;;;24.40;66.30;;;;;;5037976;28;20189;-85
2022/06/25 08:58:11;;;;;;;5.47;5.18;;;24.50;66.10;;;;;;5044816;28;20698;-86
2022/06/25 09:00:40;;;;;;;5.05;4.75;;;24.60;67.90;;;;;;5047231;28;20200;-86
2022/06/25 09:03:07;;;;;;;5.18;4.88;;;24.60;67.20;;;;;;5044423;28;20188;-86
2022/06/25 09:05:42;;;;;;;5.45;5.22;;;24.60;65.70;;;;;;5043223;28;20250;-86
2022/06/25 09:08:13;;;;;;;5.10;4.80;;;24.60;65.80;;;;;;5037555;28;20203;-86
2022/06/25 09:10:41;;;;;;;5.50;5.10;;;24.80;65.90;;;;;;5037902;28;20193;-86
2022/06/25 09:13:08;;;;;;;4.57;4.38;;;25.00;64.40;;;;;;5044818;28;20204;-87
2022/06/25 09:15:40;;;;;;;5.43;4.93;;;25.20;66.30;;;;;;5042859;28;20269;-86
2022/06/25 09:18:24;;;;;;;6.05;5.55;;;25.20;65.90;;;;;;5039798;28;20189;-87
2022/06/25 09:20:58;;;;;;;5.35;5.05;;;25.40;65.30;;;;;;5034752;28;20307;-86
2022/06/25 09:23:25;;;;;;;5.93;5.63;;;25.50;63.80;;;;;;5035557;28;20193;-86
2022/06/25 09:26:05;;;;;;;5.13;4.93;;;25.10;64.40;;;;;;5035438;28;20220;-86
2022/06/25 09:28:32;;;;;;;5.07;4.78;;;25.20;68.30;;;;;;5041065;28;20831;-87
2022/06/25 09:30:58;;;;;;;6.15;5.32;;;25.30;63.60;;;;;;5039676;28;20203;-86
2022/06/25 09:33:24;;;;;;;5.40;5.10;;;25.50;65.60;;;;;;5040726;28;20201;-86
2022/06/25 09:35:54;;;;;;;5.18;4.80;;;25.70;63.80;;;;;;5031806;28;20759;-87
2022/06/25 09:38:20;;;;;;;4.95;4.65;;;25.80;64.10;;;;;;5031677;28;20265;-87
2022/06/25 09:40:57;;;;;;;5.55;5.22;;;25.80;62.50;;;;;;5033384;28;20694;-87
2022/06/25 09:43:25;;;;;;;5.03;4.75;;;25.80;62.00;;;;;;5040719;28;20627;-87
2022/06/25 09:45:55;;;;;;;5.13;4.90;;;26.00;62.30;;;;;;5042164;28;20180;-87
2022/06/25 09:48:31;;;;;;;4.97;4.68;;;26.00;58.80;;;;;;5036973;28;20184;-87
2022/06/25 09:51:10;;;;;;;5.75;5.32;;;26.10;59.60;;;;;;5038993;28;20196;-87
2022/06/25 09:53:58;;;;;;;5.68;5.28;;;26.10;58.50;;;;;;5036137;28;20676;-87
2022/06/25 09:56:27;;;;;;;5.55;5.25;;;26.30;59.60;;;;;;5035070;28;20299;-87
2022/06/25 09:58:56;;;;;;;6.00;4.68;;;26.40;57.70;;;;;;5043152;28;20208;-87
2022/06/25 10:01:26;;;;;;;5.57;5.18;;;26.50;57.90;;;;;;5038715;28;20217;-87
2022/06/25 10:03:53;;;;;;;5.10;4.63;;;26.60;58.10;;;;;;5032803;28;20625;-86
2022/06/25 10:06:20;;;;;;;6.20;5.70;;;26.80;57.30;;;;;;5041355;28;20181;-87
2022/06/25 10:08:49;;;;;;;5.07;4.78;;;26.90;56.80;;;;;;5037216;28;20197;-86
2022/06/25 10:11:16;;;;;;;5.88;5.35;;;26.90;57.60;;;;;;5034999;28;20253;-86
2022/06/25 10:13:43;;;;;;;6.60;6.30;;;27.00;57.90;;;;;;5046174;28;20227;-86
2022/06/25 10:16:08;;;;;;;6.40;6.10;;;27.20;56.70;;;;;;5045027;28;20265;-87
2022/06/25 10:18:36;;;;;;;6.95;6.55;;;27.50;55.70;;;;;;5042002;28;20200;-86
2022/06/25 10:21:02;;;;;;;8.35;8.02;;;27.30;54.60;;;;;;5037841;28;20209;-87
2022/06/25 10:23:29;;;;;;;7.20;6.82;;;27.10;55.20;;;;;;5039206;28;20189;-86
2022/06/25 10:25:55;;;;;;;8.23;7.93;;;26.60;55.50;;;;;;5042497;28;20194;-86
2022/06/25 10:28:26;;;;;;;8.80;8.40;;;26.90;55.90;;;;;;5018240;28;20200;-86
2022/06/25 10:30:57;;;;;;;8.63;8.32;;;27.20;55.70;;;;;;5042058;28;20185;-87
2022/06/25 10:33:27;;;;;;;8.35;7.97;;;27.50;54.50;;;;;;5041082;28;20180;-86
2022/06/25 10:35:58;;;;;;;9.55;9.15;;;27.80;53.50;;;;;;5040370;28;20197;-86
2022/06/25 10:38:26;;;;;;;9.10;8.60;;;28.10;53.20;;;;;;5029225;28;20199;-86
2022/06/25 10:40:59;;;;;;;9.43;9.02;;;28.00;52.20;;;;;;5036754;28;20276;-87
2022/06/25 10:43:43;;;;;;;8.82;8.43;;;28.30;53.00;;;;;;5031732;28;20239;-86
2022/06/25 10:46:36;;;;;;;8.15;7.75;;;28.30;51.90;;;;;;5031686;28;20201;-86
2022/06/25 10:49:10;;;;;;;8.63;8.32;;;28.20;50.70;;;;;;5033918;28;20204;-87
2022/06/25 10:51:38;;;;;;;9.95;9.45;;;28.30;50.20;;;;;;5040073;28;20283;-86
2022/06/25 10:54:34;;;;;;;9.27;8.88;;;28.40;49.90;;;;;;5045234;28;20188;-86
2022/06/25 10:57:00;;;;;;;8.63;8.02;;;27.90;49.40;;;;;;5031451;28;20261;-87
2022/06/25 10:59:34;;;;;;;8.75;8.25;;;27.80;50.50;;;;;;5036508;28;20217;-85
2022/06/25 11:02:04;;;;;;;8.20;7.85;;;27.70;51.40;;;;;;5036852;28;20730;-88
2022/06/25 11:04:31;;;;;;;8.15;7.78;;;27.60;52.10;;;;;;5034763;28;20182;-87
2022/06/25 11:07:10;;;;;;;8.23;7.72;;;27.80;51.80;;;;;;5043559;28;20236;-85
2022/06/25 11:09:37;;;;;;;7.57;7.18;;;27.90;50.40;;;;;;5039371;28;20204;-86
2022/06/25 11:12:04;;;;;;;8.10;7.75;;;27.60;50.70;;;;;;5034651;28;20185;-86
2022/06/25 11:14:30;;;;;;;8.65;8.15;;;27.50;52.40;;;;;;5041509;28;20233;-86
2022/06/25 11:16:56;;;;;;;9.45;8.93;;;27.50;50.30;;;;;;5039539;28;20197;-86
2022/06/25 11:19:23;;;;;;;7.75;7.35;;;27.80;52.60;;;;;;5025260;28;20214;-86
2022/06/25 11:21:50;;;;;;;9.23;8.65;;;28.50;50.20;;;;;;5045979;28;20185;-87
2022/06/25 11:24:21;;;;;;;8.80;8.40;;;28.60;49.90;;;;;;5043700;28;20197;-86
2022/06/25 11:29:49;;;;;;;9.00;8.50;;;29.10;48.40;;;;;;5025164;28;20211;-86
2022/06/25 11:32:19;;;;;;;9.75;9.35;;;28.70;47.40;;;;;;5040316;28;20551;-85
2022/06/25 11:34:49;;;;;;;10.77;10.30;;;28.20;48.90;;;;;;5043770;28;20203;-85
2022/06/25 11:37:17;;;;;;;11.85;11.27;;;28.20;49.00;;;;;;5033854;28;20186;-85
2022/06/25 11:39:45;;;;;;;12.38;11.88;;;28.90;46.80;;;;;;5044705;28;20213;-85
2022/06/25 11:42:11;;;;;;;13.52;13.02;;;29.50;45.60;;;;;;5038146;28;20223;-85
2022/06/25 11:44:38;;;;;;;13.07;12.38;;;29.90;43.70;;;;;;5041904;28;20268;-86
2022/06/25 11:47:05;;;;;;;14.00;13.18;;;30.10;42.40;;;;;;5044510;28;20189;-88
2022/06/25 11:49:41;;;;;;;13.13;12.52;;;30.00;42.00;;;;;;5044995;28;20185;-87
2022/06/25 11:52:09;;;;;;;14.23;13.70;;;29.70;43.70;;;;;;5046593;28;20180;-86
2022/06/25 11:54:37;;;;;;;15.52;14.82;;;29.00;46.70;;;;;;5026752;28;20219;-86
2022/06/25 11:57:05;;;;;;;15.90;15.20;;;28.70;48.60;;;;;;5042889;28;20212;-86
2022/06/25 11:59:36;;;;;;;15.50;14.90;;;29.00;47.70;;;;;;5037514;28;20204;-86
2022/06/25 12:02:04;;;;;;;14.18;13.63;;;29.10;45.90;;;;;;5026637;28;20209;-87
2022/06/25 12:04:32;;;;;;;15.98;15.30;;;29.70;44.30;;;;;;5041815;28;20284;-86
2022/06/25 12:06:58;;;;;;;14.52;13.95;;;30.10;43.10;;;;;;5022068;28;20186;-87
2022/06/25 12:09:25;;;;;;;13.13;12.63;;;30.60;42.20;;;;;;5035593;28;20534;-87
2022/06/25 12:11:51;;;;;;;12.23;11.75;;;30.60;42.50;;;;;;5036349;28;20272;-87
2022/06/25 12:14:25;;;;;;;12.15;11.65;;;30.60;41.90;;;;;;5031006;28;20182;-86
2022/06/25 12:16:52;;;;;;;11.45;10.85;;;31.00;41.60;;;;;;5037698;28;20192;-86
2022/06/25 12:19:19;;;;;;;12.18;11.68;;;31.10;40.30;;;;;;5035725;28;20263;-87
2022/06/25 12:21:48;;;;;;;11.70;11.20;;;31.20;39.90;;;;;;5032563;28;20244;-86
2022/06/25 12:24:16;;;;;;;12.02;11.48;;;31.60;38.60;;;;;;5035075;28;20196;-86
2022/06/25 12:26:51;;;;;;;12.32;11.73;;;31.60;38.70;;;;;;5036279;28;20185;-87
2022/06/25 12:29:22;;;;;;;12.70;12.10;;;31.50;37.90;;;;;;5044723;28;20204;-85
2022/06/25 12:31:55;;;;;;;12.48;11.88;;;31.50;37.90;;;;;;5031030;28;20192;-86
2022/06/25 12:34:20;;;;;;;11.75;11.35;;;31.00;38.30;;;;;;5025384;28;20192;-86
2022/06/25 12:36:48;;;;;;;13.07;12.50;;;31.20;37.80;;;;;;5037532;28;20193;-86
2022/06/25 12:39:36;;;;;;;13.48;12.98;;;31.70;36.70;;;;;;5035687;28;20228;-86
2022/06/25 12:42:13;;;;;;;14.38;13.68;;;32.10;35.90;;;;;;5030319;28;20609;-86
2022/06/25 12:44:46;;;;;;;17.02;16.20;;;32.50;36.70;;;;;;5030775;28;20185;-86
2022/06/25 12:47:14;;;;;;;17.58;16.98;;;32.10;35.70;;;;;;5036628;28;20197;-86
2022/06/25 12:49:55;;;;;;;18.88;18.10;;;32.00;35.90;;;;;;5043723;28;20204;-87
2022/06/25 12:52:26;;;;;;;18.77;17.83;;;32.30;35.70;;;;;;5034548;28;20197;-86
2022/06/25 12:54:54;;;;;;;18.83;18.02;;;32.50;37.00;;;;;;5041730;28;20192;-86
2022/06/25 12:57:31;;;;;;;18.98;18.27;;;32.90;34.60;;;;;;5041991;28;20227;-87
2022/06/25 12:59:59;;;;;;;18.58;17.92;;;33.10;34.70;;;;;;5044582;28;20305;-87
2022/06/25 13:02:25;;;;;;;18.02;17.42;;;33.20;34.60;;;;;;5040988;28;20659;-87